Time;durP1;ratioP1;P1;durP2;ratioP2;P2;SDS_P1;SDS_P2;PMS_P1;PMS_P2;Temp;Humidity;BMP_temperature;BMP_pressure;BME280_temperature;BME280_humidity;BME280_pressure;Samples;Min_cycle;Max_cycle;Signal;HPM_P1;HPM_P2
2022/02/14 00:00:18;;;;;;;3.25;1.7;;;;;;;-1.07;39.84375;94765.69;;;;
2022/02/14 00:01:19;;;;;;;3.25;1.7;;;;;;;-1.07;39.84375;94765.69;;;;
2022/02/14 00:02:20;;;;;;;3.25;1.7;;;;;;;-1.07;39.84375;94765.69;;;;
2022/02/14 00:03:21;;;;;;;3.25;1.7;;;;;;;-1.07;39.84375;94765.69;;;;
2022/02/14 00:04:21;;;;;;;3.25;1.7;;;;;;;-1.07;39.84375;94765.69;;;;
2022/02/14 00:05:22;;;;;;;3.25;1.7;;;;;;;-1.07;39.84375;94765.69;;;;
2022/02/14 00:06:22;;;;;;;3.25;1.7;;;;;;;-1.07;39.84375;94765.69;;;;
2022/02/14 00:07:23;;;;;;;3.25;1.7;;;;;;;-1.07;39.84375;94765.69;;;;
2022/02/14 00:08:23;;;;;;;2.5;1.5;;;;;;;-1.2;39.88379;94767.68;;;;
2022/02/14 00:09:24;;;;;;;2.5;1.5;;;;;;;-1.2;39.88379;94767.68;;;;
2022/02/14 00:10:24;;;;;;;2.5;1.5;;;;;;;-1.2;39.88379;94767.68;;;;
2022/02/14 00:11:25;;;;;;;2.5;1.5;;;;;;;-1.2;39.88379;94767.68;;;;
2022/02/14 00:12:25;;;;;;;2.5;1.5;;;;;;;-1.2;39.88379;94767.68;;;;
2022/02/14 00:13:26;;;;;;;2.5;1.5;;;;;;;-1.2;39.88379;94767.68;;;;
2022/02/14 00:14:27;;;;;;;2.5;1.5;;;;;;;-1.2;39.88379;94767.68;;;;
2022/02/14 00:15:28;;;;;;;2.5;1.5;;;;;;;-1.2;39.88379;94767.68;;;;
2022/02/14 00:16:28;;;;;;;2.5;1.5;;;;;;;-1.2;39.88379;94767.68;;;;
2022/02/14 00:17:29;;;;;;;2.5;1.5;;;;;;;-1.2;39.88379;94767.68;;;;
2022/02/14 00:18:29;;;;;;;3.6;1.7;;;;;;;-1.39;39.93945;94757.99;;;;
2022/02/14 00:19:30;;;;;;;3.6;1.7;;;;;;;-1.39;39.93945;94757.99;;;;
2022/02/14 00:20:30;;;;;;;3.6;1.7;;;;;;;-1.39;39.93945;94757.99;;;;
2022/02/14 00:21:31;;;;;;;3.6;1.7;;;;;;;-1.39;39.93945;94757.99;;;;
2022/02/14 00:22:32;;;;;;;3.6;1.7;;;;;;;-1.39;39.93945;94757.99;;;;
2022/02/14 00:23:32;;;;;;;3.6;1.7;;;;;;;-1.39;39.93945;94757.99;;;;
2022/02/14 00:24:33;;;;;;;3.6;1.7;;;;;;;-1.39;39.93945;94757.99;;;;
2022/02/14 00:25:33;;;;;;;3.6;1.7;;;;;;;-1.39;39.93945;94757.99;;;;
2022/02/14 00:26:34;;;;;;;3.6;1.7;;;;;;;-1.39;39.93945;94757.99;;;;
2022/02/14 00:27:34;;;;;;;3.6;1.7;;;;;;;-1.39;39.93945;94757.99;;;;
2022/02/14 00:28:35;;;;;;;3.6;1.7;;;;;;;-1.39;39.93945;94757.99;;;;
2022/02/14 00:29:35;;;;;;;2.2;1.6;;;;;;;-1.51;40.06543;94750.53;;;;
2022/02/14 00:30:36;;;;;;;2.2;1.6;;;;;;;-1.51;40.06543;94750.53;;;;
2022/02/14 00:31:37;;;;;;;2.2;1.6;;;;;;;-1.51;40.06543;94750.53;;;;
2022/02/14 00:32:37;;;;;;;2.2;1.6;;;;;;;-1.51;40.06543;94750.53;;;;
2022/02/14 00:33:38;;;;;;;2.2;1.6;;;;;;;-1.51;40.06543;94750.53;;;;
2022/02/14 00:34:38;;;;;;;2.2;1.6;;;;;;;-1.51;40.06543;94750.53;;;;
2022/02/14 00:35:39;;;;;;;2.2;1.6;;;;;;;-1.51;40.06543;94750.53;;;;
2022/02/14 00:36:39;;;;;;;2.2;1.6;;;;;;;-1.51;40.06543;94750.53;;;;
2022/02/14 00:37:40;;;;;;;2.2;1.6;;;;;;;-1.51;40.06543;94750.53;;;;
2022/02/14 00:38:41;;;;;;;2.2;1.6;;;;;;;-1.51;40.06543;94750.53;;;;
2022/02/14 00:39:41;;;;;;;2.25;1.5;;;;;;;-1.56;40.22754;94743.73;;;;
2022/02/14 00:40:43;;;;;;;2.25;1.5;;;;;;;-1.56;40.22754;94743.73;;;;
2022/02/14 00:41:43;;;;;;;2.25;1.5;;;;;;;-1.56;40.22754;94743.73;;;;
2022/02/14 00:42:45;;;;;;;2.25;1.5;;;;;;;-1.56;40.22754;94743.73;;;;
2022/02/14 00:43:45;;;;;;;2.25;1.5;;;;;;;-1.56;40.22754;94743.73;;;;
2022/02/14 00:44:46;;;;;;;2.25;1.5;;;;;;;-1.56;40.22754;94743.73;;;;
2022/02/14 00:45:46;;;;;;;2.25;1.5;;;;;;;-1.56;40.22754;94743.73;;;;
2022/02/14 00:46:47;;;;;;;2.25;1.5;;;;;;;-1.56;40.22754;94743.73;;;;
2022/02/14 00:47:48;;;;;;;2.25;1.5;;;;;;;-1.56;40.22754;94743.73;;;;
2022/02/14 00:48:48;;;;;;;2.25;1.5;;;;;;;-1.56;40.22754;94743.73;;;;
2022/02/14 00:49:49;;;;;;;2.25;1.5;;;;;;;-1.56;40.22754;94743.73;;;;
2022/02/14 00:50:50;;;;;;;2.25;1.5;;;;;;;-1.56;40.22754;94743.73;;;;
2022/02/14 00:51:50;;;;;;;2.25;1.5;;;;;;;-1.56;40.22754;94743.73;;;;
2022/02/14 00:52:51;;;;;;;2.25;1.5;;;;;;;-1.56;40.22754;94743.73;;;;
2022/02/14 00:53:51;;;;;;;2.25;1.5;;;;;;;-1.56;40.22754;94743.73;;;;
2022/02/14 00:54:52;;;;;;;2.25;1.5;;;;;;;-1.56;40.22754;94743.73;;;;
2022/02/14 00:55:54;;;;;;;2.25;1.5;;;;;;;-1.56;40.22754;94743.73;;;;
2022/02/14 00:56:54;;;;;;;2.25;1.5;;;;;;;-1.56;40.22754;94743.73;;;;
2022/02/14 00:57:55;;;;;;;2.25;1.5;;;;;;;-1.56;40.22754;94743.73;;;;
2022/02/14 00:58:55;;;;;;;2.25;1.5;;;;;;;-1.56;40.22754;94743.73;;;;
2022/02/14 00:59:56;;;;;;;2.25;1.5;;;;;;;-1.56;40.22754;94743.73;;;;
2022/02/14 01:00:56;;;;;;;2.9;1.3;;;;;;;-1.36;40.2793;94727.19;;;;
2022/02/14 01:01:57;;;;;;;2.9;1.3;;;;;;;-1.36;40.2793;94727.19;;;;
2022/02/14 01:02:57;;;;;;;2.9;1.3;;;;;;;-1.36;40.2793;94727.19;;;;
2022/02/14 01:03:58;;;;;;;2.9;1.3;;;;;;;-1.36;40.2793;94727.19;;;;
2022/02/14 01:04:59;;;;;;;2.9;1.3;;;;;;;-1.36;40.2793;94727.19;;;;
2022/02/14 01:05:59;;;;;;;2.9;1.3;;;;;;;-1.36;40.2793;94727.19;;;;
2022/02/14 01:07:00;;;;;;;2.9;1.3;;;;;;;-1.36;40.2793;94727.19;;;;
2022/02/14 01:08:00;;;;;;;2.9;1.3;;;;;;;-1.36;40.2793;94727.19;;;;
2022/02/14 01:09:01;;;;;;;2.9;1.3;;;;;;;-1.36;40.2793;94727.19;;;;
2022/02/14 01:10:02;;;;;;;2.9;1.3;;;;;;;-1.36;40.2793;94727.19;;;;
2022/02/14 01:11:04;;;;;;;2.9;1.3;;;;;;;-1.36;40.2793;94727.19;;;;
2022/02/14 01:12:05;;;;;;;2.5;1.3;;;;;;;-1.29;40.21094;94706.11;;;;
2022/02/14 01:13:06;;;;;;;2.5;1.3;;;;;;;-1.29;40.21094;94706.11;;;;
2022/02/14 01:14:07;;;;;;;2.5;1.3;;;;;;;-1.29;40.21094;94706.11;;;;
2022/02/14 01:15:08;;;;;;;2.5;1.3;;;;;;;-1.29;40.21094;94706.11;;;;
2022/02/14 01:16:10;;;;;;;2.5;1.3;;;;;;;-1.29;40.21094;94706.11;;;;
2022/02/14 01:17:10;;;;;;;2.5;1.3;;;;;;;-1.29;40.21094;94706.11;;;;
2022/02/14 01:18:11;;;;;;;2.5;1.3;;;;;;;-1.29;40.21094;94706.11;;;;
2022/02/14 01:19:12;;;;;;;2.5;1.3;;;;;;;-1.29;40.21094;94706.11;;;;
2022/02/14 01:20:12;;;;;;;2.5;1.3;;;;;;;-1.29;40.21094;94706.11;;;;
2022/02/14 01:21:14;;;;;;;2.5;1.3;;;;;;;-1.29;40.21094;94706.11;;;;
2022/02/14 01:22:15;;;;;;;1.9;1.3;;;;;;;-1.23;40.54395;94701.35;;;;
2022/02/14 01:23:16;;;;;;;1.9;1.3;;;;;;;-1.23;40.54395;94701.35;;;;
2022/02/14 01:24:16;;;;;;;1.9;1.3;;;;;;;-1.23;40.54395;94701.35;;;;
2022/02/14 01:25:17;;;;;;;1.9;1.3;;;;;;;-1.23;40.54395;94701.35;;;;
2022/02/14 01:26:17;;;;;;;1.9;1.3;;;;;;;-1.23;40.54395;94701.35;;;;
2022/02/14 01:27:18;;;;;;;1.9;1.3;;;;;;;-1.23;40.54395;94701.35;;;;
2022/02/14 01:28:18;;;;;;;1.9;1.3;;;;;;;-1.23;40.54395;94701.35;;;;
2022/02/14 01:29:19;;;;;;;1.9;1.3;;;;;;;-1.23;40.54395;94701.35;;;;
2022/02/14 01:30:20;;;;;;;1.9;1.3;;;;;;;-1.23;40.54395;94701.35;;;;
2022/02/14 01:31:21;;;;;;;1.9;1.3;;;;;;;-1.23;40.54395;94701.35;;;;
2022/02/14 01:32:23;;;;;;;1.9;1.3;;;;;;;-1.23;40.54395;94701.35;;;;
2022/02/14 01:33:24;;;;;;;1.7;1.3;;;;;;;-0.86;40.53711;94685.02;;;;
2022/02/14 01:34:25;;;;;;;1.7;1.3;;;;;;;-0.86;40.53711;94685.02;;;;
2022/02/14 01:35:26;;;;;;;1.7;1.3;;;;;;;-0.86;40.53711;94685.02;;;;
2022/02/14 01:36:27;;;;;;;1.7;1.3;;;;;;;-0.86;40.53711;94685.02;;;;
2022/02/14 01:37:27;;;;;;;1.7;1.3;;;;;;;-0.86;40.53711;94685.02;;;;
2022/02/14 01:38:28;;;;;;;1.7;1.3;;;;;;;-0.86;40.53711;94685.02;;;;
2022/02/14 01:39:29;;;;;;;1.7;1.3;;;;;;;-0.86;40.53711;94685.02;;;;
2022/02/14 01:40:29;;;;;;;1.7;1.3;;;;;;;-0.86;40.53711;94685.02;;;;
2022/02/14 01:41:30;;;;;;;1.7;1.3;;;;;;;-0.86;40.53711;94685.02;;;;
2022/02/14 01:42:30;;;;;;;1.7;1.3;;;;;;;-0.86;40.53711;94685.02;;;;
2022/02/14 01:43:31;;;;;;;3.45;1.4;;;;;;;-0.56;40.38574;94680.56;;;;
2022/02/14 01:44:31;;;;;;;3.45;1.4;;;;;;;-0.56;40.38574;94680.56;;;;
2022/02/14 01:45:35;;;;;;;3.45;1.4;;;;;;;-0.56;40.38574;94680.56;;;;
2022/02/14 01:46:36;;;;;;;3.45;1.4;;;;;;;-0.56;40.38574;94680.56;;;;
2022/02/14 01:47:36;;;;;;;3.45;1.4;;;;;;;-0.56;40.38574;94680.56;;;;
2022/02/14 01:48:37;;;;;;;3.45;1.4;;;;;;;-0.56;40.38574;94680.56;;;;
2022/02/14 01:49:39;;;;;;;3.45;1.4;;;;;;;-0.56;40.38574;94680.56;;;;
2022/02/14 01:50:41;;;;;;;3.45;1.4;;;;;;;-0.56;40.38574;94680.56;;;;
2022/02/14 01:51:45;;;;;;;3.45;1.4;;;;;;;-0.56;40.38574;94680.56;;;;
2022/02/14 01:52:46;;;;;;;3.45;1.4;;;;;;;-0.56;40.38574;94680.56;;;;
2022/02/14 01:53:47;;;;;;;3.45;1.4;;;;;;;-0.56;40.38574;94680.56;;;;
2022/02/14 01:54:49;;;;;;;1.7;1.4;;;;;;;-0.38;40.28809;94662.83;;;;
2022/02/14 01:55:51;;;;;;;1.7;1.4;;;;;;;-0.38;40.28809;94662.83;;;;
2022/02/14 01:56:52;;;;;;;1.7;1.4;;;;;;;-0.38;40.28809;94662.83;;;;
2022/02/14 01:57:53;;;;;;;1.7;1.4;;;;;;;-0.38;40.28809;94662.83;;;;
2022/02/14 01:58:54;;;;;;;1.7;1.4;;;;;;;-0.38;40.28809;94662.83;;;;
2022/02/14 01:59:54;;;;;;;1.7;1.4;;;;;;;-0.38;40.28809;94662.83;;;;
2022/02/14 02:00:55;;;;;;;1.7;1.4;;;;;;;-0.38;40.28809;94662.83;;;;
2022/02/14 02:01:55;;;;;;;1.7;1.4;;;;;;;-0.38;40.28809;94662.83;;;;
2022/02/14 02:02:56;;;;;;;1.7;1.4;;;;;;;-0.38;40.28809;94662.83;;;;
2022/02/14 02:03:57;;;;;;;1.7;1.4;;;;;;;-0.38;40.28809;94662.83;;;;
2022/02/14 02:04:58;;;;;;;1.45;1.25;;;;;;;-0.2;40.35742;94645.22;;;;
2022/02/14 02:05:59;;;;;;;1.45;1.25;;;;;;;-0.2;40.35742;94645.22;;;;
2022/02/14 02:06:59;;;;;;;1.45;1.25;;;;;;;-0.2;40.35742;94645.22;;;;
2022/02/14 02:08:01;;;;;;;1.45;1.25;;;;;;;-0.2;40.35742;94645.22;;;;
2022/02/14 02:09:02;;;;;;;1.45;1.25;;;;;;;-0.2;40.35742;94645.22;;;;
2022/02/14 02:10:03;;;;;;;1.45;1.25;;;;;;;-0.2;40.35742;94645.22;;;;
2022/02/14 02:16:21;;;;;;;1.65;1.15;;;;;;;0.04;40.4541;94643.13;;;;
2022/02/14 02:17:21;;;;;;;1.65;1.15;;;;;;;0.04;40.4541;94643.13;;;;
2022/02/14 02:18:23;;;;;;;1.65;1.15;;;;;;;0.04;40.4541;94643.13;;;;
2022/02/14 02:19:24;;;;;;;1.65;1.15;;;;;;;0.04;40.4541;94643.13;;;;
2022/02/14 02:20:24;;;;;;;1.65;1.15;;;;;;;0.04;40.4541;94643.13;;;;
2022/02/14 02:21:25;;;;;;;1.65;1.15;;;;;;;0.04;40.4541;94643.13;;;;
2022/02/14 02:22:25;;;;;;;1.65;1.15;;;;;;;0.04;40.4541;94643.13;;;;
2022/02/14 02:23:26;;;;;;;1.65;1.15;;;;;;;0.04;40.4541;94643.13;;;;
2022/02/14 02:24:26;;;;;;;1.65;1.15;;;;;;;0.04;40.4541;94643.13;;;;
2022/02/14 02:25:27;;;;;;;1.65;1.15;;;;;;;0.04;40.4541;94643.13;;;;
2022/02/14 02:26:28;;;;;;;1.65;1.15;;;;;;;0.04;40.4541;94643.13;;;;
2022/02/14 02:27:29;;;;;;;1.65;1.15;;;;;;;0.04;40.4541;94643.13;;;;
2022/02/14 02:28:30;;;;;;;1.65;1.15;;;;;;;0.04;40.4541;94643.13;;;;
2022/02/14 02:29:30;;;;;;;1.65;1.15;;;;;;;0.04;40.4541;94643.13;;;;
2022/02/14 02:30:36;;;;;;;1.65;1.15;;;;;;;0.04;40.4541;94643.13;;;;
2022/02/14 02:31:37;;;;;;;1.65;1.15;;;;;;;0.04;40.4541;94643.13;;;;
2022/02/14 02:32:37;;;;;;;1.65;1.15;;;;;;;0.04;40.4541;94643.13;;;;
2022/02/14 02:33:38;;;;;;;1.65;1.15;;;;;;;0.04;40.4541;94643.13;;;;
2022/02/14 02:34:39;;;;;;;1.65;1.15;;;;;;;0.04;40.4541;94643.13;;;;
2022/02/14 02:35:41;;;;;;;1.65;1.15;;;;;;;0.04;40.4541;94643.13;;;;
2022/02/14 02:36:41;;;;;;;1.65;1.15;;;;;;;0.04;40.4541;94643.13;;;;
2022/02/14 02:37:47;;;;;;;1.5;1.3;;;;;;;0.46;40.37793;94607.31;;;;
2022/02/14 02:38:47;;;;;;;1.5;1.3;;;;;;;0.46;40.37793;94607.31;;;;
2022/02/14 02:39:48;;;;;;;1.5;1.3;;;;;;;0.46;40.37793;94607.31;;;;
2022/02/14 02:40:48;;;;;;;1.5;1.3;;;;;;;0.46;40.37793;94607.31;;;;
2022/02/14 02:41:50;;;;;;;1.5;1.3;;;;;;;0.46;40.37793;94607.31;;;;
2022/02/14 02:42:51;;;;;;;1.5;1.3;;;;;;;0.46;40.37793;94607.31;;;;
2022/02/14 02:43:51;;;;;;;1.5;1.3;;;;;;;0.46;40.37793;94607.31;;;;
2022/02/14 02:44:52;;;;;;;1.5;1.3;;;;;;;0.46;40.37793;94607.31;;;;
2022/02/14 02:45:53;;;;;;;1.5;1.3;;;;;;;0.46;40.37793;94607.31;;;;
2022/02/14 02:46:55;;;;;;;1.5;1.3;;;;;;;0.46;40.37793;94607.31;;;;
2022/02/14 02:47:55;;;;;;;1.75;1.2;;;;;;;0.59;40.24219;94618.47;;;;
2022/02/14 02:48:56;;;;;;;1.75;1.2;;;;;;;0.59;40.24219;94618.47;;;;
2022/02/14 02:50:08;;;;;;;1.75;1.2;;;;;;;0.59;40.24219;94618.47;;;;
2022/02/14 02:51:08;;;;;;;1.75;1.2;;;;;;;0.59;40.24219;94618.47;;;;
2022/02/14 02:52:09;;;;;;;1.75;1.2;;;;;;;0.59;40.24219;94618.47;;;;
2022/02/14 02:53:11;;;;;;;1.75;1.2;;;;;;;0.59;40.24219;94618.47;;;;
2022/02/14 02:54:12;;;;;;;1.75;1.2;;;;;;;0.59;40.24219;94618.47;;;;
2022/02/14 02:55:13;;;;;;;1.75;1.2;;;;;;;0.59;40.24219;94618.47;;;;
2022/02/14 02:56:14;;;;;;;1.75;1.2;;;;;;;0.59;40.24219;94618.47;;;;
2022/02/14 02:57:14;;;;;;;1.75;1.2;;;;;;;0.59;40.24219;94618.47;;;;
2022/02/14 02:58:15;;;;;;;1.75;1.2;;;;;;;0.59;40.24219;94618.47;;;;
2022/02/14 02:59:16;;;;;;;0.9;0.9;;;;;;;0.64;40.17383;94601.45;;;;
2022/02/14 03:00:17;;;;;;;0.9;0.9;;;;;;;0.64;40.17383;94601.45;;;;
2022/02/14 03:01:18;;;;;;;0.9;0.9;;;;;;;0.64;40.17383;94601.45;;;;
2022/02/14 03:02:18;;;;;;;0.9;0.9;;;;;;;0.64;40.17383;94601.45;;;;
2022/02/14 03:03:19;;;;;;;0.9;0.9;;;;;;;0.64;40.17383;94601.45;;;;
2022/02/14 03:04:19;;;;;;;0.9;0.9;;;;;;;0.64;40.17383;94601.45;;;;
2022/02/14 03:05:25;;;;;;;0.9;0.9;;;;;;;0.64;40.17383;94601.45;;;;
2022/02/14 03:06:25;;;;;;;0.9;0.9;;;;;;;0.64;40.17383;94601.45;;;;
2022/02/14 03:07:26;;;;;;;0.9;0.9;;;;;;;0.64;40.17383;94601.45;;;;
2022/02/14 03:08:26;;;;;;;0.9;0.9;;;;;;;0.64;40.17383;94601.45;;;;
2022/02/14 03:09:27;;;;;;;2.2;1.2;;;;;;;0.67;40.12402;94591.35;;;;
2022/02/14 03:10:28;;;;;;;2.2;1.2;;;;;;;0.67;40.12402;94591.35;;;;
2022/02/14 03:11:28;;;;;;;2.2;1.2;;;;;;;0.67;40.12402;94591.35;;;;
2022/02/14 03:12:29;;;;;;;2.2;1.2;;;;;;;0.67;40.12402;94591.35;;;;
2022/02/14 03:13:29;;;;;;;2.2;1.2;;;;;;;0.67;40.12402;94591.35;;;;
2022/02/14 03:14:29;;;;;;;2.2;1.2;;;;;;;0.67;40.12402;94591.35;;;;
2022/02/14 03:15:30;;;;;;;2.2;1.2;;;;;;;0.67;40.12402;94591.35;;;;
2022/02/14 03:16:31;;;;;;;2.2;1.2;;;;;;;0.67;40.12402;94591.35;;;;
2022/02/14 03:17:32;;;;;;;2.2;1.2;;;;;;;0.67;40.12402;94591.35;;;;
2022/02/14 03:18:34;;;;;;;2.2;1.2;;;;;;;0.67;40.12402;94591.35;;;;
2022/02/14 03:19:34;;;;;;;2.2;1.2;;;;;;;0.67;40.12402;94591.35;;;;
2022/02/14 03:20:36;;;;;;;1.3;1.2;;;;;;;0.75;39.99316;94592.13;;;;
2022/02/14 03:21:37;;;;;;;1.3;1.2;;;;;;;0.75;39.99316;94592.13;;;;
2022/02/14 03:22:38;;;;;;;1.3;1.2;;;;;;;0.75;39.99316;94592.13;;;;
2022/02/14 03:23:38;;;;;;;1.3;1.2;;;;;;;0.75;39.99316;94592.13;;;;
2022/02/14 03:24:40;;;;;;;1.3;1.2;;;;;;;0.75;39.99316;94592.13;;;;
2022/02/14 03:25:40;;;;;;;1.3;1.2;;;;;;;0.75;39.99316;94592.13;;;;
2022/02/14 03:26:41;;;;;;;1.3;1.2;;;;;;;0.75;39.99316;94592.13;;;;
2022/02/14 03:27:41;;;;;;;1.3;1.2;;;;;;;0.75;39.99316;94592.13;;;;
2022/02/14 03:28:42;;;;;;;1.3;1.2;;;;;;;0.75;39.99316;94592.13;;;;
2022/02/14 03:29:43;;;;;;;1.3;1.2;;;;;;;0.75;39.99316;94592.13;;;;
2022/02/14 03:30:43;;;;;;;1.7;1.2;;;;;;;0.74;39.91992;94584.23;;;;
2022/02/14 03:31:44;;;;;;;1.7;1.2;;;;;;;0.74;39.91992;94584.23;;;;
2022/02/14 03:32:44;;;;;;;1.7;1.2;;;;;;;0.74;39.91992;94584.23;;;;
2022/02/14 03:33:45;;;;;;;1.7;1.2;;;;;;;0.74;39.91992;94584.23;;;;
2022/02/14 03:34:46;;;;;;;1.7;1.2;;;;;;;0.74;39.91992;94584.23;;;;
2022/02/14 03:35:47;;;;;;;1.7;1.2;;;;;;;0.74;39.91992;94584.23;;;;
2022/02/14 03:36:48;;;;;;;1.7;1.2;;;;;;;0.74;39.91992;94584.23;;;;
2022/02/14 03:37:49;;;;;;;1.7;1.2;;;;;;;0.74;39.91992;94584.23;;;;
2022/02/14 03:38:50;;;;;;;1.7;1.2;;;;;;;0.74;39.91992;94584.23;;;;
2022/02/14 03:39:51;;;;;;;1.7;1.2;;;;;;;0.74;39.91992;94584.23;;;;
2022/02/14 03:40:51;;;;;;;1.7;1.2;;;;;;;0.74;39.91992;94584.23;;;;
2022/02/14 03:41:52;;;;;;;2.3;1.35;;;;;;;0.79;39.88184;94565.49;;;;
2022/02/14 03:42:52;;;;;;;2.3;1.35;;;;;;;0.79;39.88184;94565.49;;;;
2022/02/14 03:43:53;;;;;;;2.3;1.35;;;;;;;0.79;39.88184;94565.49;;;;
2022/02/14 03:44:53;;;;;;;2.3;1.35;;;;;;;0.79;39.88184;94565.49;;;;
2022/02/14 03:45:54;;;;;;;2.3;1.35;;;;;;;0.79;39.88184;94565.49;;;;
2022/02/14 03:46:55;;;;;;;2.3;1.35;;;;;;;0.79;39.88184;94565.49;;;;
2022/02/14 03:47:55;;;;;;;2.3;1.35;;;;;;;0.79;39.88184;94565.49;;;;
2022/02/14 03:48:57;;;;;;;2.3;1.35;;;;;;;0.79;39.88184;94565.49;;;;
2022/02/14 03:49:57;;;;;;;2.3;1.35;;;;;;;0.79;39.88184;94565.49;;;;
2022/02/14 03:50:58;;;;;;;2.3;1.35;;;;;;;0.79;39.88184;94565.49;;;;
2022/02/14 03:51:59;;;;;;;1.3;1.2;;;;;;;0.92;39.74609;94563.31;;;;
2022/02/14 03:53:00;;;;;;;1.3;1.2;;;;;;;0.92;39.74609;94563.31;;;;
2022/02/14 03:54:01;;;;;;;1.3;1.2;;;;;;;0.92;39.74609;94563.31;;;;
2022/02/14 03:55:01;;;;;;;1.3;1.2;;;;;;;0.92;39.74609;94563.31;;;;
2022/02/14 03:56:04;;;;;;;1.3;1.2;;;;;;;0.92;39.74609;94563.31;;;;
2022/02/14 03:57:05;;;;;;;1.3;1.2;;;;;;;0.92;39.74609;94563.31;;;;
2022/02/14 03:58:07;;;;;;;1.3;1.2;;;;;;;0.92;39.74609;94563.31;;;;
2022/02/14 03:59:07;;;;;;;1.3;1.2;;;;;;;0.92;39.74609;94563.31;;;;
2022/02/14 04:00:08;;;;;;;1.3;1.2;;;;;;;0.92;39.74609;94563.31;;;;
2022/02/14 04:01:11;;;;;;;1.3;1.2;;;;;;;0.92;39.74609;94563.31;;;;
2022/02/14 04:02:12;;;;;;;1.3;1.2;;;;;;;0.92;39.74609;94563.31;;;;
2022/02/14 04:03:12;;;;;;;1.5;1.35;;;;;;;0.85;39.70703;94556.73;;;;
2022/02/14 04:04:13;;;;;;;1.5;1.35;;;;;;;0.85;39.70703;94556.73;;;;
2022/02/14 04:05:13;;;;;;;1.5;1.35;;;;;;;0.85;39.70703;94556.73;;;;
2022/02/14 04:06:16;;;;;;;1.5;1.35;;;;;;;0.85;39.70703;94556.73;;;;
2022/02/14 04:07:16;;;;;;;1.5;1.35;;;;;;;0.85;39.70703;94556.73;;;;
2022/02/14 04:08:17;;;;;;;1.5;1.35;;;;;;;0.85;39.70703;94556.73;;;;
2022/02/14 04:09:18;;;;;;;1.5;1.35;;;;;;;0.85;39.70703;94556.73;;;;
2022/02/14 04:10:18;;;;;;;1.5;1.35;;;;;;;0.85;39.70703;94556.73;;;;
2022/02/14 04:11:19;;;;;;;1.5;1.35;;;;;;;0.85;39.70703;94556.73;;;;
2022/02/14 04:12:19;;;;;;;1.5;1.35;;;;;;;0.85;39.70703;94556.73;;;;
2022/02/14 04:13:20;;;;;;;1.9;1.35;;;;;;;0.69;39.80859;94547.74;;;;
2022/02/14 04:14:21;;;;;;;1.9;1.35;;;;;;;0.69;39.80859;94547.74;;;;
2022/02/14 04:15:21;;;;;;;1.9;1.35;;;;;;;0.69;39.80859;94547.74;;;;
2022/02/14 04:16:23;;;;;;;1.9;1.35;;;;;;;0.69;39.80859;94547.74;;;;
2022/02/14 04:17:24;;;;;;;1.9;1.35;;;;;;;0.69;39.80859;94547.74;;;;
2022/02/14 04:18:24;;;;;;;1.9;1.35;;;;;;;0.69;39.80859;94547.74;;;;
2022/02/14 04:19:25;;;;;;;1.9;1.35;;;;;;;0.69;39.80859;94547.74;;;;
2022/02/14 04:20:25;;;;;;;1.9;1.35;;;;;;;0.69;39.80859;94547.74;;;;
2022/02/14 04:21:26;;;;;;;1.9;1.35;;;;;;;0.69;39.80859;94547.74;;;;
2022/02/14 04:22:26;;;;;;;1.9;1.35;;;;;;;0.69;39.80859;94547.74;;;;
2022/02/14 04:23:27;;;;;;;1.9;1.35;;;;;;;0.69;39.80859;94547.74;;;;
2022/02/14 04:24:27;;;;;;;1.5;1.15;;;;;;;0.78;39.73242;94527.56;;;;
2022/02/14 04:25:28;;;;;;;1.5;1.15;;;;;;;0.78;39.73242;94527.56;;;;
2022/02/14 04:26:28;;;;;;;1.5;1.15;;;;;;;0.78;39.73242;94527.56;;;;
2022/02/14 04:27:29;;;;;;;1.5;1.15;;;;;;;0.78;39.73242;94527.56;;;;
2022/02/14 04:28:30;;;;;;;1.5;1.15;;;;;;;0.78;39.73242;94527.56;;;;
2022/02/14 04:29:30;;;;;;;1.5;1.15;;;;;;;0.78;39.73242;94527.56;;;;
2022/02/14 04:30:31;;;;;;;1.5;1.15;;;;;;;0.78;39.73242;94527.56;;;;
2022/02/14 04:31:31;;;;;;;1.5;1.15;;;;;;;0.78;39.73242;94527.56;;;;
2022/02/14 04:32:32;;;;;;;1.5;1.15;;;;;;;0.78;39.73242;94527.56;;;;
2022/02/14 04:33:32;;;;;;;1.5;1.15;;;;;;;0.78;39.73242;94527.56;;;;
2022/02/14 04:34:33;;;;;;;1.5;1.15;;;;;;;0.78;39.73242;94527.56;;;;
2022/02/14 04:35:34;;;;;;;1.5;1.2;;;;;;;0.83;39.67285;94525.16;;;;
2022/02/14 04:36:35;;;;;;;1.5;1.2;;;;;;;0.83;39.67285;94525.16;;;;
2022/02/14 04:37:35;;;;;;;1.5;1.2;;;;;;;0.83;39.67285;94525.16;;;;
2022/02/14 04:38:36;;;;;;;1.5;1.2;;;;;;;0.83;39.67285;94525.16;;;;
2022/02/14 04:39:37;;;;;;;1.5;1.2;;;;;;;0.83;39.67285;94525.16;;;;
2022/02/14 04:40:39;;;;;;;1.5;1.2;;;;;;;0.83;39.67285;94525.16;;;;
2022/02/14 04:41:39;;;;;;;1.5;1.2;;;;;;;0.83;39.67285;94525.16;;;;
2022/02/14 04:42:41;;;;;;;1.5;1.2;;;;;;;0.83;39.67285;94525.16;;;;
2022/02/14 04:43:41;;;;;;;1.5;1.2;;;;;;;0.83;39.67285;94525.16;;;;
2022/02/14 04:44:42;;;;;;;1.5;1.2;;;;;;;0.83;39.67285;94525.16;;;;
2022/02/14 04:45:42;;;;;;;1.8;1.25;;;;;;;0.91;39.50195;94504.97;;;;
2022/02/14 04:46:43;;;;;;;1.8;1.25;;;;;;;0.91;39.50195;94504.97;;;;
2022/02/14 04:47:44;;;;;;;1.8;1.25;;;;;;;0.91;39.50195;94504.97;;;;
2022/02/14 04:48:44;;;;;;;1.8;1.25;;;;;;;0.91;39.50195;94504.97;;;;
2022/02/14 04:49:45;;;;;;;1.8;1.25;;;;;;;0.91;39.50195;94504.97;;;;
2022/02/14 04:50:45;;;;;;;1.8;1.25;;;;;;;0.91;39.50195;94504.97;;;;
2022/02/14 04:51:46;;;;;;;1.8;1.25;;;;;;;0.91;39.50195;94504.97;;;;
2022/02/14 04:52:46;;;;;;;1.8;1.25;;;;;;;0.91;39.50195;94504.97;;;;
2022/02/14 04:53:47;;;;;;;1.8;1.25;;;;;;;0.91;39.50195;94504.97;;;;
2022/02/14 04:54:48;;;;;;;1.8;1.25;;;;;;;0.91;39.50195;94504.97;;;;
2022/02/14 04:55:48;;;;;;;1.8;1.25;;;;;;;0.91;39.50195;94504.97;;;;
2022/02/14 04:56:49;;;;;;;1.7;1.2;;;;;;;0.97;39.46484;94496.31;;;;
2022/02/14 04:57:49;;;;;;;1.7;1.2;;;;;;;0.97;39.46484;94496.31;;;;
2022/02/14 04:58:50;;;;;;;1.7;1.2;;;;;;;0.97;39.46484;94496.31;;;;
2022/02/14 04:59:51;;;;;;;1.7;1.2;;;;;;;0.97;39.46484;94496.31;;;;
2022/02/14 05:00:52;;;;;;;1.7;1.2;;;;;;;0.97;39.46484;94496.31;;;;
2022/02/14 05:01:53;;;;;;;1.7;1.2;;;;;;;0.97;39.46484;94496.31;;;;
2022/02/14 05:02:53;;;;;;;1.7;1.2;;;;;;;0.97;39.46484;94496.31;;;;
2022/02/14 05:03:53;;;;;;;1.7;1.2;;;;;;;0.97;39.46484;94496.31;;;;
2022/02/14 05:04:54;;;;;;;1.7;1.2;;;;;;;0.97;39.46484;94496.31;;;;
2022/02/14 05:05:55;;;;;;;1.7;1.2;;;;;;;0.97;39.46484;94496.31;;;;
2022/02/14 05:06:55;;;;;;;1.6;1.25;;;;;;;0.96;39.39063;94499.88;;;;
2022/02/14 05:07:56;;;;;;;1.6;1.25;;;;;;;0.96;39.39063;94499.88;;;;
2022/02/14 05:08:56;;;;;;;1.6;1.25;;;;;;;0.96;39.39063;94499.88;;;;
2022/02/14 05:09:57;;;;;;;1.6;1.25;;;;;;;0.96;39.39063;94499.88;;;;
2022/02/14 05:10:57;;;;;;;1.6;1.25;;;;;;;0.96;39.39063;94499.88;;;;
2022/02/14 05:11:59;;;;;;;1.6;1.25;;;;;;;0.96;39.39063;94499.88;;;;
2022/02/14 05:13:00;;;;;;;1.6;1.25;;;;;;;0.96;39.39063;94499.88;;;;
2022/02/14 05:14:00;;;;;;;1.6;1.25;;;;;;;0.96;39.39063;94499.88;;;;
2022/02/14 05:15:01;;;;;;;1.6;1.25;;;;;;;0.96;39.39063;94499.88;;;;
2022/02/14 05:16:03;;;;;;;1.6;1.25;;;;;;;0.96;39.39063;94499.88;;;;
2022/02/14 05:17:04;;;;;;;1.6;1.25;;;;;;;0.96;39.39063;94499.88;;;;
2022/02/14 05:18:05;;;;;;;1.25;1.1;;;;;;;0.9;39.38477;94500.24;;;;
2022/02/14 05:19:06;;;;;;;1.25;1.1;;;;;;;0.9;39.38477;94500.24;;;;
2022/02/14 05:20:06;;;;;;;1.25;1.1;;;;;;;0.9;39.38477;94500.24;;;;
2022/02/14 05:21:08;;;;;;;1.25;1.1;;;;;;;0.9;39.38477;94500.24;;;;
2022/02/14 05:22:08;;;;;;;1.25;1.1;;;;;;;0.9;39.38477;94500.24;;;;
2022/02/14 05:23:09;;;;;;;1.25;1.1;;;;;;;0.9;39.38477;94500.24;;;;
2022/02/14 05:24:09;;;;;;;1.25;1.1;;;;;;;0.9;39.38477;94500.24;;;;
2022/02/14 05:25:10;;;;;;;1.25;1.1;;;;;;;0.9;39.38477;94500.24;;;;
2022/02/14 05:26:10;;;;;;;1.25;1.1;;;;;;;0.9;39.38477;94500.24;;;;
2022/02/14 05:27:11;;;;;;;1.25;1.1;;;;;;;0.9;39.38477;94500.24;;;;
2022/02/14 05:28:12;;;;;;;2.4;1.3;;;;;;;0.8;39.40723;94497.55;;;;
2022/02/14 05:29:12;;;;;;;2.4;1.3;;;;;;;0.8;39.40723;94497.55;;;;
2022/02/14 05:30:13;;;;;;;2.4;1.3;;;;;;;0.8;39.40723;94497.55;;;;
2022/02/14 05:31:13;;;;;;;2.4;1.3;;;;;;;0.8;39.40723;94497.55;;;;
2022/02/14 05:32:14;;;;;;;2.4;1.3;;;;;;;0.8;39.40723;94497.55;;;;
2022/02/14 05:33:15;;;;;;;2.4;1.3;;;;;;;0.8;39.40723;94497.55;;;;
2022/02/14 05:34:15;;;;;;;2.4;1.3;;;;;;;0.8;39.40723;94497.55;;;;
2022/02/14 05:35:16;;;;;;;2.4;1.3;;;;;;;0.8;39.40723;94497.55;;;;
2022/02/14 05:36:16;;;;;;;2.4;1.3;;;;;;;0.8;39.40723;94497.55;;;;
2022/02/14 05:37:18;;;;;;;2.4;1.3;;;;;;;0.8;39.40723;94497.55;;;;
2022/02/14 05:38:18;;;;;;;2.4;1.3;;;;;;;0.8;39.40723;94497.55;;;;
2022/02/14 05:39:19;;;;;;;1.4;1.2;;;;;;;0.71;39.44043;94497.39;;;;
2022/02/14 05:40:19;;;;;;;1.4;1.2;;;;;;;0.71;39.44043;94497.39;;;;
2022/02/14 05:41:21;;;;;;;1.4;1.2;;;;;;;0.71;39.44043;94497.39;;;;
2022/02/14 05:42:23;;;;;;;1.4;1.2;;;;;;;0.71;39.44043;94497.39;;;;
2022/02/14 05:43:24;;;;;;;1.4;1.2;;;;;;;0.71;39.44043;94497.39;;;;
2022/02/14 05:44:24;;;;;;;1.4;1.2;;;;;;;0.71;39.44043;94497.39;;;;
2022/02/14 05:45:25;;;;;;;1.4;1.2;;;;;;;0.71;39.44043;94497.39;;;;
2022/02/14 05:46:25;;;;;;;1.4;1.2;;;;;;;0.71;39.44043;94497.39;;;;
2022/02/14 05:47:26;;;;;;;1.4;1.2;;;;;;;0.71;39.44043;94497.39;;;;
2022/02/14 05:48:26;;;;;;;1.4;1.2;;;;;;;0.71;39.44043;94497.39;;;;
2022/02/14 05:49:27;;;;;;;3.699999;1.2;;;;;;;0.67;39.54297;94498.38;;;;
2022/02/14 05:50:27;;;;;;;3.699999;1.2;;;;;;;0.67;39.54297;94498.38;;;;
2022/02/14 05:51:28;;;;;;;3.699999;1.2;;;;;;;0.67;39.54297;94498.38;;;;
2022/02/14 05:52:29;;;;;;;3.699999;1.2;;;;;;;0.67;39.54297;94498.38;;;;
2022/02/14 05:53:29;;;;;;;3.699999;1.2;;;;;;;0.67;39.54297;94498.38;;;;
2022/02/14 05:54:30;;;;;;;3.699999;1.2;;;;;;;0.67;39.54297;94498.38;;;;
2022/02/14 05:55:30;;;;;;;3.699999;1.2;;;;;;;0.67;39.54297;94498.38;;;;
2022/02/14 05:56:31;;;;;;;3.699999;1.2;;;;;;;0.67;39.54297;94498.38;;;;
2022/02/14 05:57:32;;;;;;;3.699999;1.2;;;;;;;0.67;39.54297;94498.38;;;;
2022/02/14 05:58:33;;;;;;;3.699999;1.2;;;;;;;0.67;39.54297;94498.38;;;;
2022/02/14 05:59:33;;;;;;;3.699999;1.2;;;;;;;0.67;39.54297;94498.38;;;;